Irongate — D5GT2 — position and weather

sailwx.info

Track history (hours):
 
Tides and Currents Weather Stations Pressure Air Temp Water Temp Dewpoint Dewpoint Depression Visibility Wind Speed Wind Dir Waves Ship Positions

Irongate

Last reported at 2018-May-18 23:54 UTC. Time now 2018-May-23 01:34 UTC.
Position N 22°53' E 119°53'.

Length 169 m; draft 9.4 m.

Type: Cargo ship. MMSI: 636016558.

Date/timePositionNaut miles runAvg speedWind from/ knotsBaromVisibWave heightAir tempDewpointWater temp
2018-May-18 23:54N 22°53' E 119°53'513.4
2018-May-18 23:30N 22°47' E 119°53'712.7
2018-May-18 22:59N 22°41' E 119°52'612.5
2018-May-18 22:29N 22°35' E 119°50'2612.4
2018-May-18 20:21N 22°12' E 119°34'712.9
2018-May-18 19:48N 22°07' E 119°30'413.3
2018-May-18 19:30N 22°03' E 119°28'1213.1
2018-May-18 18:33N 21°53' E 119°21'113.1
2018-May-18 18:28N 21°52' E 119°20'  
Track history (hours):
 
Tides and Currents Weather Stations Pressure Air Temp Water Temp Dewpoint Dewpoint Depression Visibility Wind Speed Wind Dir Waves Ship Positions

Irongate

Last reported at 2018-May-18 23:54 UTC. Time now 2018-May-23 01:34 UTC.
Position N 22°53' E 119°53'.

Length 169 m; draft 9.4 m.

Type: Cargo ship. MMSI: 636016558.

Date/timePositionNaut miles runAvg speedWind from/ knotsBaromVisibWave heightAir tempDewpointWater temp
2018-May-18 23:54N 22°53' E 119°53'513.4
2018-May-18 23:30N 22°47' E 119°53'712.7
2018-May-18 22:59N 22°41' E 119°52'612.5
2018-May-18 22:29N 22°35' E 119°50'2612.4
2018-May-18 20:21N 22°12' E 119°34'712.9
2018-May-18 19:48N 22°07' E 119°30'413.3
2018-May-18 19:30N 22°03' E 119°28'1213.1
2018-May-18 18:33N 21°53' E 119°21'113.1
2018-May-18 18:28N 21°52' E 119°20'  

Dump ship's entire track history